sensor_id;sensor_type;location;lat;lon;timestamp;pressure;altitude;pressure_sealevel;temperature;humidity
33153;BME280;19509;43.862;26.176;2023-05-23T00:01:11;100485.78;;;12.66;85.81
33153;BME280;19509;43.862;26.176;2023-05-23T00:03:39;100495.16;;;12.63;85.63
33153;BME280;19509;43.862;26.176;2023-05-23T00:06:05;100490.38;;;12.65;85.44
33153;BME280;19509;43.862;26.176;2023-05-23T00:08:31;100495.09;;;12.51;84.79
33153;BME280;19509;43.862;26.176;2023-05-23T00:10:57;100498.56;;;12.40;84.87
33153;BME280;19509;43.862;26.176;2023-05-23T00:13:22;100500.72;;;12.31;84.61
33153;BME280;19509;43.862;26.176;2023-05-23T00:15:48;100502.59;;;12.13;84.72
33153;BME280;19509;43.862;26.176;2023-05-23T00:18:13;100503.44;;;11.81;85.36
33153;BME280;19509;43.862;26.176;2023-05-23T00:20:40;100507.09;;;11.69;86.27
33153;BME280;19509;43.862;26.176;2023-05-23T00:23:10;100505.84;;;11.65;86.54
33153;BME280;19509;43.862;26.176;2023-05-23T00:25:38;100506.09;;;11.63;87.19
33153;BME280;19509;43.862;26.176;2023-05-23T00:28:05;100506.25;;;11.68;87.40
33153;BME280;19509;43.862;26.176;2023-05-23T00:30:32;100507.63;;;11.77;86.81
33153;BME280;19509;43.862;26.176;2023-05-23T00:32:57;100506.53;;;11.85;86.75
33153;BME280;19509;43.862;26.176;2023-05-23T00:35:24;100507.81;;;11.82;86.43
33153;BME280;19509;43.862;26.176;2023-05-23T00:37:51;100510.69;;;11.88;86.26
33153;BME280;19509;43.862;26.176;2023-05-23T00:40:17;100504.97;;;11.71;86.64
33153;BME280;19509;43.862;26.176;2023-05-23T00:42:43;100506.63;;;11.72;86.71
33153;BME280;19509;43.862;26.176;2023-05-23T00:45:09;100499.44;;;11.66;86.90
33153;BME280;19509;43.862;26.176;2023-05-23T00:47:40;100498.25;;;11.87;87.25
33153;BME280;19509;43.862;26.176;2023-05-23T00:50:10;100493.00;;;11.92;86.21
33153;BME280;19509;43.862;26.176;2023-05-23T00:52:37;100492.66;;;11.81;86.48
33153;BME280;19509;43.862;26.176;2023-05-23T00:55:04;100499.91;;;11.81;86.54
33153;BME280;19509;43.862;26.176;2023-05-23T00:57:30;100494.53;;;11.56;85.08
33153;BME280;19509;43.862;26.176;2023-05-23T00:59:58;100497.28;;;11.49;86.74
33153;BME280;19509;43.862;26.176;2023-05-23T01:02:24;100490.41;;;11.53;86.81
33153;BME280;19509;43.862;26.176;2023-05-23T01:04:50;100492.38;;;11.40;86.52
33153;BME280;19509;43.862;26.176;2023-05-23T01:07:20;100488.66;;;11.34;86.26
33153;BME280;19509;43.862;26.176;2023-05-23T01:09:45;100486.97;;;11.40;86.86
33153;BME280;19509;43.862;26.176;2023-05-23T01:12:18;100496.94;;;11.39;86.33
33153;BME280;19509;43.862;26.176;2023-05-23T01:15:18;100482.25;;;11.35;85.13
33153;BME280;19509;43.862;26.176;2023-05-23T01:17:54;100485.63;;;11.24;85.49
33153;BME280;19509;43.862;26.176;2023-05-23T01:20:47;100485.69;;;11.10;85.96
33153;BME280;19509;43.862;26.176;2023-05-23T01:23:38;100492.31;;;11.15;86.21
33153;BME280;19509;43.862;26.176;2023-05-23T01:28:36;100490.53;;;11.33;87.51
33153;BME280;19509;43.862;26.176;2023-05-23T01:31:03;100487.63;;;11.35;86.79
33153;BME280;19509;43.862;26.176;2023-05-23T01:33:31;100478.75;;;11.34;87.43
33153;BME280;19509;43.862;26.176;2023-05-23T01:36:00;100483.06;;;11.35;87.34
33153;BME280;19509;43.862;26.176;2023-05-23T01:38:26;100482.50;;;11.27;87.01
33153;BME280;19509;43.862;26.176;2023-05-23T01:40:52;100490.81;;;11.25;87.22
33153;BME280;19509;43.862;26.176;2023-05-23T01:43:18;100486.47;;;11.24;86.49
33153;BME280;19509;43.862;26.176;2023-05-23T01:45:44;100485.22;;;11.20;86.72
33153;BME280;19509;43.862;26.176;2023-05-23T01:48:12;100489.44;;;11.09;87.28
33153;BME280;19509;43.862;26.176;2023-05-23T01:50:40;100480.44;;;10.91;87.69
33153;BME280;19509;43.862;26.176;2023-05-23T01:53:10;100485.81;;;10.97;88.31
33153;BME280;19509;43.862;26.176;2023-05-23T01:55:36;100495.63;;;11.17;87.77
33153;BME280;19509;43.862;26.176;2023-05-23T01:58:02;100492.16;;;11.03;88.29
33153;BME280;19509;43.862;26.176;2023-05-23T02:00:28;100496.72;;;11.02;88.62
33153;BME280;19509;43.862;26.176;2023-05-23T02:02:53;100497.31;;;11.11;88.54
33153;BME280;19509;43.862;26.176;2023-05-23T02:05:19;100490.81;;;11.25;88.14
33153;BME280;19509;43.862;26.176;2023-05-23T02:07:44;100494.56;;;11.24;87.70
33153;BME280;19509;43.862;26.176;2023-05-23T02:10:10;100496.81;;;11.21;88.20
33153;BME280;19509;43.862;26.176;2023-05-23T02:12:35;100487.88;;;11.27;88.02
33153;BME280;19509;43.862;26.176;2023-05-23T02:15:01;100489.16;;;11.24;88.19
33153;BME280;19509;43.862;26.176;2023-05-23T02:17:26;100492.50;;;11.20;88.17
33153;BME280;19509;43.862;26.176;2023-05-23T02:19:52;100498.47;;;11.28;88.26
33153;BME280;19509;43.862;26.176;2023-05-23T02:22:22;100504.59;;;11.42;87.28
33153;BME280;19509;43.862;26.176;2023-05-23T02:24:49;100501.66;;;11.44;87.82
33153;BME280;19509;43.862;26.176;2023-05-23T02:27:14;100501.69;;;11.37;87.37
33153;BME280;19509;43.862;26.176;2023-05-23T02:29:40;100506.63;;;11.47;87.29
33153;BME280;19509;43.862;26.176;2023-05-23T02:32:05;100493.38;;;11.45;87.08
33153;BME280;19509;43.862;26.176;2023-05-23T02:34:31;100502.72;;;11.43;86.55
33153;BME280;19509;43.862;26.176;2023-05-23T02:36:56;100499.63;;;11.39;86.04
33153;BME280;19509;43.862;26.176;2023-05-23T02:39:22;100497.75;;;11.40;86.98
33153;BME280;19509;43.862;26.176;2023-05-23T02:41:47;100505.59;;;11.41;87.28
33153;BME280;19509;43.862;26.176;2023-05-23T02:44:13;100497.72;;;11.46;87.26
33153;BME280;19509;43.862;26.176;2023-05-23T02:46:39;100498.72;;;11.52;86.93
33153;BME280;19509;43.862;26.176;2023-05-23T02:49:04;100503.91;;;11.47;86.88
33153;BME280;19509;43.862;26.176;2023-05-23T02:51:30;100502.09;;;11.41;86.90
33153;BME280;19509;43.862;26.176;2023-05-23T02:53:57;100504.16;;;11.45;86.78
33153;BME280;19509;43.862;26.176;2023-05-23T02:56:22;100509.31;;;11.47;86.51
33153;BME280;19509;43.862;26.176;2023-05-23T02:58:47;100500.28;;;11.34;87.33
33153;BME280;19509;43.862;26.176;2023-05-23T03:01:13;100505.00;;;11.39;87.34
33153;BME280;19509;43.862;26.176;2023-05-23T03:03:39;100513.66;;;11.48;86.92
33153;BME280;19509;43.862;26.176;2023-05-23T03:06:06;100508.03;;;11.24;87.82
33153;BME280;19509;43.862;26.176;2023-05-23T03:08:31;100503.03;;;11.28;88.54
33153;BME280;19509;43.862;26.176;2023-05-23T03:10:57;100505.34;;;11.49;87.82
33153;BME280;19509;43.862;26.176;2023-05-23T03:13:22;100512.00;;;11.72;87.22
33153;BME280;19509;43.862;26.176;2023-05-23T03:15:48;100513.81;;;11.84;87.41
33153;BME280;19509;43.862;26.176;2023-05-23T03:18:13;100514.84;;;12.08;86.50
33153;BME280;19509;43.862;26.176;2023-05-23T03:20:39;100523.50;;;12.36;85.64
33153;BME280;19509;43.862;26.176;2023-05-23T03:23:05;100527.41;;;12.40;85.15
33153;BME280;19509;43.862;26.176;2023-05-23T03:25:30;100529.22;;;12.46;86.19
33153;BME280;19509;43.862;26.176;2023-05-23T03:27:55;100528.69;;;12.55;85.79
33153;BME280;19509;43.862;26.176;2023-05-23T03:30:21;100538.91;;;12.72;85.39
33153;BME280;19509;43.862;26.176;2023-05-23T03:32:47;100536.31;;;12.77;84.56
33153;BME280;19509;43.862;26.176;2023-05-23T03:35:12;100531.75;;;12.96;83.44
33153;BME280;19509;43.862;26.176;2023-05-23T03:37:38;100533.19;;;12.98;83.87
33153;BME280;19509;43.862;26.176;2023-05-23T03:40:04;100534.88;;;13.11;83.66
33153;BME280;19509;43.862;26.176;2023-05-23T03:42:31;100530.59;;;13.22;83.80
33153;BME280;19509;43.862;26.176;2023-05-23T03:44:56;100540.06;;;13.13;83.34
33153;BME280;19509;43.862;26.176;2023-05-23T03:47:22;100548.53;;;13.16;83.57
33153;BME280;19509;43.862;26.176;2023-05-23T03:49:50;100550.53;;;13.21;83.66
33153;BME280;19509;43.862;26.176;2023-05-23T03:52:16;100546.13;;;13.27;84.03
33153;BME280;19509;43.862;26.176;2023-05-23T03:54:41;100545.44;;;13.31;83.88
33153;BME280;19509;43.862;26.176;2023-05-23T03:57:07;100548.03;;;13.38;84.61
33153;BME280;19509;43.862;26.176;2023-05-23T03:59:33;100554.31;;;13.50;83.80
33153;BME280;19509;43.862;26.176;2023-05-23T04:01:59;100555.66;;;13.59;83.80
33153;BME280;19509;43.862;26.176;2023-05-23T04:04:26;100549.78;;;13.62;83.42
33153;BME280;19509;43.862;26.176;2023-05-23T04:06:51;100555.91;;;13.69;83.30
33153;BME280;19509;43.862;26.176;2023-05-23T04:09:17;100551.94;;;13.84;83.25
33153;BME280;19509;43.862;26.176;2023-05-23T04:11:43;100555.34;;;13.91;82.94
33153;BME280;19509;43.862;26.176;2023-05-23T04:14:08;100553.47;;;13.91;83.19
33153;BME280;19509;43.862;26.176;2023-05-23T04:16:34;100555.84;;;14.00;83.27
33153;BME280;19509;43.862;26.176;2023-05-23T04:19:00;100545.84;;;14.12;82.00
33153;BME280;19509;43.862;26.176;2023-05-23T04:21:26;100554.31;;;14.15;82.96
33153;BME280;19509;43.862;26.176;2023-05-23T04:23:52;100556.00;;;14.16;82.72
33153;BME280;19509;43.862;26.176;2023-05-23T04:26:18;100557.97;;;14.21;83.00
33153;BME280;19509;43.862;26.176;2023-05-23T04:28:46;100553.97;;;14.12;83.29
33153;BME280;19509;43.862;26.176;2023-05-23T04:31:13;100557.88;;;14.28;83.45
33153;BME280;19509;43.862;26.176;2023-05-23T04:33:38;100564.59;;;14.37;82.42
33153;BME280;19509;43.862;26.176;2023-05-23T04:36:04;100568.00;;;14.44;82.86
33153;BME280;19509;43.862;26.176;2023-05-23T04:38:33;100569.63;;;14.57;82.36
33153;BME280;19509;43.862;26.176;2023-05-23T04:40:58;100574.81;;;14.70;82.76
33153;BME280;19509;43.862;26.176;2023-05-23T04:43:24;100571.63;;;14.85;82.14
33153;BME280;19509;43.862;26.176;2023-05-23T04:45:51;100568.38;;;15.00;82.06
33153;BME280;19509;43.862;26.176;2023-05-23T04:48:21;100579.41;;;15.22;81.48
33153;BME280;19509;43.862;26.176;2023-05-23T04:50:47;100576.38;;;15.35;80.34
33153;BME280;19509;43.862;26.176;2023-05-23T04:53:13;100568.06;;;15.53;79.94
33153;BME280;19509;43.862;26.176;2023-05-23T04:55:38;100566.84;;;15.61;79.28
33153;BME280;19509;43.862;26.176;2023-05-23T04:58:04;100559.91;;;15.82;78.79
33153;BME280;19509;43.862;26.176;2023-05-23T05:00:30;100570.78;;;15.99;78.22
33153;BME280;19509;43.862;26.176;2023-05-23T05:02:55;100566.41;;;16.15;78.43
33153;BME280;19509;43.862;26.176;2023-05-23T05:05:20;100566.06;;;16.45;77.49
33153;BME280;19509;43.862;26.176;2023-05-23T05:07:46;100566.22;;;16.55;77.49
33153;BME280;19509;43.862;26.176;2023-05-23T05:10:12;100568.25;;;16.65;77.83
33153;BME280;19509;43.862;26.176;2023-05-23T05:12:44;100568.47;;;16.63;76.62
33153;BME280;19509;43.862;26.176;2023-05-23T05:15:17;100568.47;;;16.80;76.96
33153;BME280;19509;43.862;26.176;2023-05-23T05:17:43;100572.41;;;16.89;76.78
33153;BME280;19509;43.862;26.176;2023-05-23T05:20:09;100569.22;;;16.97;76.85
33153;BME280;19509;43.862;26.176;2023-05-23T05:22:38;100571.69;;;17.21;76.58
33153;BME280;19509;43.862;26.176;2023-05-23T05:25:08;100571.41;;;17.44;76.09
33153;BME280;19509;43.862;26.176;2023-05-23T05:27:34;100562.88;;;18.70;73.07
33153;BME280;19509;43.862;26.176;2023-05-23T05:30:06;100564.59;;;19.69;67.74
33153;BME280;19509;43.862;26.176;2023-05-23T05:32:32;100567.66;;;18.95;71.83
33153;BME280;19509;43.862;26.176;2023-05-23T05:35:01;100555.25;;;19.29;69.83
33153;BME280;19509;43.862;26.176;2023-05-23T05:37:27;100558.75;;;19.25;67.62
33153;BME280;19509;43.862;26.176;2023-05-23T05:39:53;100567.22;;;19.28;68.98
33153;BME280;19509;43.862;26.176;2023-05-23T05:42:20;100565.16;;;19.76;65.15
33153;BME280;19509;43.862;26.176;2023-05-23T05:44:46;100558.56;;;20.54;64.13
33153;BME280;19509;43.862;26.176;2023-05-23T05:47:12;100568.94;;;19.50;65.88
33153;BME280;19509;43.862;26.176;2023-05-23T05:49:37;100570.50;;;19.35;68.82
33153;BME280;19509;43.862;26.176;2023-05-23T05:52:05;100575.41;;;18.71;69.32
33153;BME280;19509;43.862;26.176;2023-05-23T05:54:31;100573.97;;;18.15;70.28
33153;BME280;19509;43.862;26.176;2023-05-23T05:56:56;100577.50;;;18.11;70.61
33153;BME280;19509;43.862;26.176;2023-05-23T05:59:22;100574.09;;;18.31;70.85
33153;BME280;19509;43.862;26.176;2023-05-23T06:01:47;100579.47;;;18.63;69.68
33153;BME280;19509;43.862;26.176;2023-05-23T06:04:15;100579.38;;;18.10;72.20
33153;BME280;19509;43.862;26.176;2023-05-23T06:06:41;100579.50;;;18.26;72.42
33153;BME280;19509;43.862;26.176;2023-05-23T06:09:06;100578.03;;;18.50;72.10
33153;BME280;19509;43.862;26.176;2023-05-23T06:11:32;100573.28;;;18.73;71.47
33153;BME280;19509;43.862;26.176;2023-05-23T06:13:58;100575.34;;;19.03;72.66
33153;BME280;19509;43.862;26.176;2023-05-23T06:16:23;100577.59;;;19.31;70.21
33153;BME280;19509;43.862;26.176;2023-05-23T06:18:48;100586.00;;;19.14;68.90
33153;BME280;19509;43.862;26.176;2023-05-23T06:21:14;100583.84;;;19.17;71.85
33153;BME280;19509;43.862;26.176;2023-05-23T06:23:40;100582.47;;;19.14;70.91
33153;BME280;19509;43.862;26.176;2023-05-23T06:26:05;100575.13;;;19.20;71.49
33153;BME280;19509;43.862;26.176;2023-05-23T06:28:36;100575.59;;;19.01;70.00
33153;BME280;19509;43.862;26.176;2023-05-23T06:31:02;100581.03;;;19.01;68.14
33153;BME280;19509;43.862;26.176;2023-05-23T06:33:28;100572.94;;;19.17;69.18
33153;BME280;19509;43.862;26.176;2023-05-23T06:35:54;100567.56;;;19.47;68.50
33153;BME280;19509;43.862;26.176;2023-05-23T06:38:20;100564.03;;;19.57;66.44
33153;BME280;19509;43.862;26.176;2023-05-23T06:40:45;100564.84;;;19.62;66.41
33153;BME280;19509;43.862;26.176;2023-05-23T06:43:11;100553.97;;;19.83;65.97
33153;BME280;19509;43.862;26.176;2023-05-23T06:45:37;100545.50;;;19.84;64.38
33153;BME280;19509;43.862;26.176;2023-05-23T06:48:03;100545.72;;;19.47;65.01
33153;BME280;19509;43.862;26.176;2023-05-23T06:50:29;100545.44;;;19.49;64.65
33153;BME280;19509;43.862;26.176;2023-05-23T06:52:54;100541.94;;;19.69;65.00
33153;BME280;19509;43.862;26.176;2023-05-23T06:55:21;100553.16;;;20.03;65.00
33153;BME280;19509;43.862;26.176;2023-05-23T06:57:46;100544.41;;;20.21;64.01
33153;BME280;19509;43.862;26.176;2023-05-23T07:00:15;100552.88;;;20.04;65.40
33153;BME280;19509;43.862;26.176;2023-05-23T07:02:40;100541.97;;;19.84;65.45
33153;BME280;19509;43.862;26.176;2023-05-23T07:05:06;100556.97;;;20.12;64.83
33153;BME280;19509;43.862;26.176;2023-05-23T07:07:32;100554.50;;;19.80;64.83
33153;BME280;19509;43.862;26.176;2023-05-23T07:09:57;100543.31;;;19.87;65.95
33153;BME280;19509;43.862;26.176;2023-05-23T07:12:23;100548.78;;;19.92;63.76
33153;BME280;19509;43.862;26.176;2023-05-23T07:14:48;100546.03;;;20.22;64.91
33153;BME280;19509;43.862;26.176;2023-05-23T07:17:13;100546.00;;;20.27;62.67
33153;BME280;19509;43.862;26.176;2023-05-23T07:19:39;100550.41;;;20.28;63.25
33153;BME280;19509;43.862;26.176;2023-05-23T07:22:05;100542.22;;;20.13;63.16
33153;BME280;19509;43.862;26.176;2023-05-23T07:24:30;100552.03;;;20.29;62.62
33153;BME280;19509;43.862;26.176;2023-05-23T07:26:56;100550.41;;;20.18;63.44
33153;BME280;19509;43.862;26.176;2023-05-23T07:29:21;100542.72;;;20.30;61.92
33153;BME280;19509;43.862;26.176;2023-05-23T07:31:47;100547.34;;;20.61;63.04
33153;BME280;19509;43.862;26.176;2023-05-23T07:34:13;100548.97;;;20.62;61.34
33153;BME280;19509;43.862;26.176;2023-05-23T07:36:38;100547.06;;;20.47;62.38
33153;BME280;19509;43.862;26.176;2023-05-23T07:39:05;100543.50;;;20.62;63.19
33153;BME280;19509;43.862;26.176;2023-05-23T07:41:31;100545.66;;;20.65;61.70
33153;BME280;19509;43.862;26.176;2023-05-23T07:43:56;100544.19;;;20.98;61.34
33153;BME280;19509;43.862;26.176;2023-05-23T07:46:22;100542.47;;;21.12;59.61
33153;BME280;19509;43.862;26.176;2023-05-23T07:48:48;100538.81;;;20.77;59.61
33153;BME280;19509;43.862;26.176;2023-05-23T07:51:13;100532.03;;;20.60;59.48
33153;BME280;19509;43.862;26.176;2023-05-23T07:53:39;100537.88;;;21.02;59.01
33153;BME280;19509;43.862;26.176;2023-05-23T07:56:05;100535.91;;;21.13;61.08
33153;BME280;19509;43.862;26.176;2023-05-23T07:58:31;100536.44;;;21.15;59.39
33153;BME280;19509;43.862;26.176;2023-05-23T08:00:56;100535.53;;;21.35;60.71
33153;BME280;19509;43.862;26.176;2023-05-23T08:03:22;100540.88;;;21.56;59.89
33153;BME280;19509;43.862;26.176;2023-05-23T08:05:48;100543.03;;;21.09;58.81
33153;BME280;19509;43.862;26.176;2023-05-23T08:08:14;100537.78;;;21.18;56.98
33153;BME280;19509;43.862;26.176;2023-05-23T08:10:40;100540.94;;;20.96;57.88
33153;BME280;19509;43.862;26.176;2023-05-23T08:13:05;100532.81;;;21.30;56.29
33153;BME280;19509;43.862;26.176;2023-05-23T08:15:31;100531.28;;;21.58;54.77
33153;BME280;19509;43.862;26.176;2023-05-23T08:17:58;100531.97;;;21.74;57.53
33153;BME280;19509;43.862;26.176;2023-05-23T08:20:25;100527.66;;;21.68;55.12
33153;BME280;19509;43.862;26.176;2023-05-23T08:22:57;100520.78;;;21.70;55.81
33153;BME280;19509;43.862;26.176;2023-05-23T08:25:23;100525.22;;;21.95;56.37
33153;BME280;19509;43.862;26.176;2023-05-23T08:27:49;100523.78;;;22.03;56.45
33153;BME280;19509;43.862;26.176;2023-05-23T08:30:15;100513.38;;;22.00;55.14
33153;BME280;19509;43.862;26.176;2023-05-23T08:32:41;100505.31;;;22.19;54.37
33153;BME280;19509;43.862;26.176;2023-05-23T08:35:07;100509.91;;;22.24;56.57
33153;BME280;19509;43.862;26.176;2023-05-23T08:37:32;100505.81;;;22.21;55.11
33153;BME280;19509;43.862;26.176;2023-05-23T08:39:58;100510.78;;;22.43;54.01
33153;BME280;19509;43.862;26.176;2023-05-23T08:42:24;100505.81;;;22.45;53.76
33153;BME280;19509;43.862;26.176;2023-05-23T08:44:49;100504.50;;;22.42;52.35
33153;BME280;19509;43.862;26.176;2023-05-23T08:47:16;100517.31;;;22.71;54.05
33153;BME280;19509;43.862;26.176;2023-05-23T08:49:42;100511.03;;;22.47;53.90
33153;BME280;19509;43.862;26.176;2023-05-23T08:52:11;100507.59;;;22.60;53.90
33153;BME280;19509;43.862;26.176;2023-05-23T08:54:38;100517.31;;;22.71;55.19
33153;BME280;19509;43.862;26.176;2023-05-23T08:57:05;100504.16;;;22.49;54.26
33153;BME280;19509;43.862;26.176;2023-05-23T08:59:31;100510.78;;;22.67;57.31
33153;BME280;19509;43.862;26.176;2023-05-23T09:01:58;100498.78;;;23.06;56.58
33153;BME280;19509;43.862;26.176;2023-05-23T09:04:24;100504.94;;;22.98;52.61
33153;BME280;19509;43.862;26.176;2023-05-23T09:06:50;100505.63;;;23.08;53.62
33153;BME280;19509;43.862;26.176;2023-05-23T09:09:16;100504.72;;;22.94;55.81
33153;BME280;19509;43.862;26.176;2023-05-23T09:11:42;100499.94;;;22.57;53.70
33153;BME280;19509;43.862;26.176;2023-05-23T09:14:10;100497.59;;;22.93;50.43
33153;BME280;19509;43.862;26.176;2023-05-23T09:16:35;100490.09;;;23.36;53.51
33153;BME280;19509;43.862;26.176;2023-05-23T09:19:13;100491.09;;;23.59;49.33
33153;BME280;19509;43.862;26.176;2023-05-23T09:21:45;100495.44;;;23.47;51.32
33153;BME280;19509;43.862;26.176;2023-05-23T09:24:11;100492.88;;;23.88;54.02
33153;BME280;19509;43.862;26.176;2023-05-23T09:26:37;100487.94;;;23.52;49.73
33153;BME280;19509;43.862;26.176;2023-05-23T09:29:06;100487.16;;;23.66;53.06
33153;BME280;19509;43.862;26.176;2023-05-23T09:31:31;100485.97;;;24.04;49.39
33153;BME280;19509;43.862;26.176;2023-05-23T09:33:57;100487.22;;;24.26;51.56
33153;BME280;19509;43.862;26.176;2023-05-23T09:36:27;100483.56;;;23.84;46.51
33153;BME280;19509;43.862;26.176;2023-05-23T09:38:54;100482.31;;;23.95;49.28
33153;BME280;19509;43.862;26.176;2023-05-23T09:41:20;100486.28;;;24.03;46.30
33153;BME280;19509;43.862;26.176;2023-05-23T09:43:50;100487.63;;;24.05;48.29
33153;BME280;19509;43.862;26.176;2023-05-23T09:46:16;100478.91;;;23.84;46.30
33153;BME280;19509;43.862;26.176;2023-05-23T09:48:46;100482.53;;;24.13;44.90
33153;BME280;19509;43.862;26.176;2023-05-23T09:51:12;100479.31;;;24.52;51.00
33153;BME280;19509;43.862;26.176;2023-05-23T09:53:37;100477.66;;;24.37;46.29
33153;BME280;19509;43.862;26.176;2023-05-23T09:56:03;100471.44;;;24.31;43.91
33153;BME280;19509;43.862;26.176;2023-05-23T09:58:32;100477.97;;;24.22;49.66
33153;BME280;19509;43.862;26.176;2023-05-23T10:00:59;100469.03;;;24.44;45.48
33153;BME280;19509;43.862;26.176;2023-05-23T10:03:37;100466.44;;;24.34;46.68
33153;BME280;19509;43.862;26.176;2023-05-23T10:06:13;100460.88;;;24.52;45.23
33153;BME280;19509;43.862;26.176;2023-05-23T10:08:43;100460.22;;;24.69;46.76
33153;BME280;19509;43.862;26.176;2023-05-23T10:13:46;100460.13;;;24.74;44.34
33153;BME280;19509;43.862;26.176;2023-05-23T10:16:24;100459.16;;;24.43;45.05
33153;BME280;19509;43.862;26.176;2023-05-23T10:19:02;100457.16;;;23.88;44.42
33153;BME280;19509;43.862;26.176;2023-05-23T10:21:37;100458.81;;;24.17;45.50
33153;BME280;19509;43.862;26.176;2023-05-23T10:24:05;100462.47;;;24.40;41.24
33153;BME280;19509;43.862;26.176;2023-05-23T10:26:31;100453.53;;;24.62;45.67
33153;BME280;19509;43.862;26.176;2023-05-23T10:28:57;100462.28;;;24.77;45.96
33153;BME280;19509;43.862;26.176;2023-05-23T10:31:26;100455.56;;;24.70;41.01
33153;BME280;19509;43.862;26.176;2023-05-23T10:34:07;100446.38;;;23.92;42.75
33153;BME280;19509;43.862;26.176;2023-05-23T10:36:51;100461.38;;;23.48;45.11
33153;BME280;19509;43.862;26.176;2023-05-23T10:39:32;100453.13;;;23.80;45.39
33153;BME280;19509;43.862;26.176;2023-05-23T10:42:03;100447.53;;;24.60;42.46
33153;BME280;19509;43.862;26.176;2023-05-23T10:44:31;100450.69;;;24.53;40.65
33153;BME280;19509;43.862;26.176;2023-05-23T10:46:58;100443.63;;;24.74;43.74
33153;BME280;19509;43.862;26.176;2023-05-23T10:49:53;100443.25;;;25.17;43.36
33153;BME280;19509;43.862;26.176;2023-05-23T10:52:21;100437.72;;;25.40;42.11
33153;BME280;19509;43.862;26.176;2023-05-23T10:54:50;100432.09;;;25.45;41.02
33153;BME280;19509;43.862;26.176;2023-05-23T10:57:19;100435.41;;;24.97;38.72
33153;BME280;19509;43.862;26.176;2023-05-23T10:59:45;100426.22;;;24.51;40.96
33153;BME280;19509;43.862;26.176;2023-05-23T11:02:19;100429.38;;;24.59;42.35
33153;BME280;19509;43.862;26.176;2023-05-23T11:05:21;100433.53;;;24.84;46.30
33153;BME280;19509;43.862;26.176;2023-05-23T11:08:15;100423.34;;;25.20;42.32
33153;BME280;19509;43.862;26.176;2023-05-23T11:11:01;100422.97;;;25.67;41.42
33153;BME280;19509;43.862;26.176;2023-05-23T11:13:53;100419.59;;;26.01;42.83
33153;BME280;19509;43.862;26.176;2023-05-23T11:16:42;100426.63;;;26.47;37.53
33153;BME280;19509;43.862;26.176;2023-05-23T11:21:49;100422.38;;;24.89;43.48
33153;BME280;19509;43.862;26.176;2023-05-23T11:24:15;100423.25;;;24.20;44.25
33153;BME280;19509;43.862;26.176;2023-05-23T11:26:54;100424.22;;;24.43;41.14
33153;BME280;19509;43.862;26.176;2023-05-23T11:29:24;100434.28;;;25.34;42.33
33153;BME280;19509;43.862;26.176;2023-05-23T11:31:50;100423.16;;;24.39;39.53
33153;BME280;19509;43.862;26.176;2023-05-23T11:34:17;100426.41;;;24.14;42.22
33153;BME280;19509;43.862;26.176;2023-05-23T11:36:43;100422.44;;;24.06;47.10
33153;BME280;19509;43.862;26.176;2023-05-23T11:39:08;100417.59;;;24.94;44.70
33153;BME280;19509;43.862;26.176;2023-05-23T11:41:34;100423.94;;;24.81;42.34
33153;BME280;19509;43.862;26.176;2023-05-23T11:44:00;100421.91;;;25.09;40.38
33153;BME280;19509;43.862;26.176;2023-05-23T11:46:26;100417.47;;;25.67;42.40
33153;BME280;19509;43.862;26.176;2023-05-23T11:48:52;100408.34;;;25.80;39.87
33153;BME280;19509;43.862;26.176;2023-05-23T11:51:17;100399.56;;;25.24;39.81
33153;BME280;19509;43.862;26.176;2023-05-23T11:53:44;100406.09;;;25.37;40.42
33153;BME280;19509;43.862;26.176;2023-05-23T11:56:10;100391.31;;;25.56;39.83
33153;BME280;19509;43.862;26.176;2023-05-23T11:58:37;100400.09;;;25.58;42.02
33153;BME280;19509;43.862;26.176;2023-05-23T12:01:07;100390.16;;;25.79;38.85
33153;BME280;19509;43.862;26.176;2023-05-23T12:03:43;100382.09;;;25.83;37.94
33153;BME280;19509;43.862;26.176;2023-05-23T12:06:09;100377.56;;;25.87;38.05
33153;BME280;19509;43.862;26.176;2023-05-23T12:08:34;100383.41;;;25.94;39.37
33153;BME280;19509;43.862;26.176;2023-05-23T12:11:00;100384.81;;;25.52;37.11
33153;BME280;19509;43.862;26.176;2023-05-23T12:13:29;100381.56;;;25.81;37.36
33153;BME280;19509;43.862;26.176;2023-05-23T12:15:55;100380.88;;;26.06;35.46
33153;BME280;19509;43.862;26.176;2023-05-23T12:18:23;100376.69;;;26.17;37.84
33153;BME280;19509;43.862;26.176;2023-05-23T12:20:49;100376.59;;;26.40;38.56
33153;BME280;19509;43.862;26.176;2023-05-23T12:23:21;100371.28;;;26.04;38.91
33153;BME280;19509;43.862;26.176;2023-05-23T12:25:54;100365.09;;;25.67;40.39
33153;BME280;19509;43.862;26.176;2023-05-23T12:28:32;100366.47;;;25.78;40.01
33153;BME280;19509;43.862;26.176;2023-05-23T12:30:58;100362.88;;;26.09;39.70
33153;BME280;19509;43.862;26.176;2023-05-23T12:33:24;100360.13;;;26.17;39.14
33153;BME280;19509;43.862;26.176;2023-05-23T12:35:49;100358.38;;;26.30;41.30
33153;BME280;19509;43.862;26.176;2023-05-23T12:38:15;100355.22;;;26.80;37.68
33153;BME280;19509;43.862;26.176;2023-05-23T12:40:42;100352.72;;;26.27;36.80
33153;BME280;19509;43.862;26.176;2023-05-23T12:43:08;100349.03;;;25.91;36.39
33153;BME280;19509;43.862;26.176;2023-05-23T12:45:35;100350.09;;;26.22;39.71
33153;BME280;19509;43.862;26.176;2023-05-23T12:48:07;100347.97;;;26.10;38.18
33153;BME280;19509;43.862;26.176;2023-05-23T12:50:33;100348.09;;;25.96;37.27